createdAt,value
2019-04-04T00:01:06.173Z,95.54
2019-04-04T00:02:09.869Z,95.40
2019-04-04T00:03:12.931Z,95.41
2019-04-04T00:04:16.380Z,95.30
2019-04-04T00:05:19.445Z,95.30
2019-04-04T00:31:21.356Z,96.14
2019-04-04T00:32:24.636Z,96.14
2019-04-04T00:33:27.357Z,96.20
2019-04-04T00:34:30.243Z,96.20
2019-04-04T00:35:33.423Z,95.41
2019-04-04T00:36:36.254Z,95.52
2019-04-04T00:37:41.032Z,95.52
2019-04-04T00:38:44.031Z,96.61
2019-04-04T00:39:46.909Z,96.61
2019-04-04T00:40:49.834Z,97.68
2019-04-04T00:41:52.962Z,97.60
2019-04-04T00:42:55.795Z,97.79
2019-04-04T00:43:58.903Z,97.93
2019-04-04T00:45:01.832Z,97.78
2019-04-04T00:46:04.484Z,97.82
2019-04-04T00:47:07.182Z,97.82
2019-04-04T00:48:09.994Z,98.28
2019-04-04T00:49:12.692Z,97.84
2019-04-04T00:50:15.997Z,98.11
2019-04-04T00:51:18.814Z,98.03
2019-04-04T00:52:21.994Z,97.84
2019-04-04T00:53:24.835Z,98.00
2019-04-04T00:54:28.022Z,97.67
2019-04-04T00:55:30.931Z,98.32
2019-04-04T00:56:33.889Z,98.16
2019-04-04T00:57:36.939Z,98.44
2019-04-04T00:58:39.596Z,98.24
2019-04-04T00:59:42.431Z,98.03
2019-04-04T01:00:45.313Z,98.03
2019-04-04T01:01:48.168Z,97.77
2019-04-04T01:02:51.366Z,97.87
2019-04-04T01:03:54.554Z,98.28
2019-04-04T01:04:57.403Z,98.19
2019-04-04T01:06:02.789Z,97.96
2019-04-04T01:07:05.063Z,97.85
2019-04-04T01:08:08.557Z,97.85
2019-04-04T01:09:13.697Z,97.98
2019-04-04T01:10:18.820Z,97.82
2019-04-04T01:11:21.258Z,97.96
2019-04-04T01:12:24.079Z,97.88
2019-04-04T01:13:27.738Z,97.98
2019-04-04T01:14:30.655Z,97.90
2019-04-04T01:15:34.934Z,98.14
2019-04-04T01:16:38.221Z,97.99
2019-04-04T01:17:41.038Z,97.99
2019-04-04T01:18:44.299Z,98.48
2019-04-04T01:19:48.843Z,98.35
2019-04-04T01:20:51.560Z,98.35
2019-04-04T01:21:55.104Z,98.11
2019-04-04T01:22:58.294Z,98.54
2019-04-04T01:24:01.138Z,98.41
2019-04-04T01:25:03.989Z,98.46
2019-04-04T01:26:06.939Z,98.56
2019-04-04T01:27:09.836Z,98.56
2019-04-04T01:28:12.941Z,98.57
2019-04-04T01:29:15.817Z,98.73
2019-04-04T01:30:18.627Z,98.99
2019-04-04T01:31:21.510Z,98.61
2019-04-04T01:32:24.447Z,98.46
2019-04-04T01:33:27.243Z,98.79
2019-04-04T01:34:30.363Z,99.07
2019-04-04T01:35:33.166Z,99.07
2019-04-04T01:36:37.430Z,98.55
2019-04-04T01:37:40.273Z,98.22
2019-04-04T01:38:43.129Z,98.52
2019-04-04T01:39:45.934Z,98.64
2019-04-04T01:40:49.615Z,98.84
2019-04-04T01:41:52.422Z,98.74
2019-04-04T01:42:55.279Z,98.74
2019-04-04T01:44:04.895Z,98.78
2019-04-04T01:45:03.039Z,99.03
2019-04-04T01:46:05.845Z,99.15
2019-04-04T01:47:10.110Z,99.15
2019-04-04T01:48:13.454Z,99.13
2019-04-04T01:49:16.727Z,99.21
2019-04-04T01:50:22.911Z,98.97
2019-04-04T01:51:26.149Z,99.14
2019-04-04T01:52:28.936Z,99.18
2019-04-04T01:53:32.114Z,98.79
2019-04-04T01:54:35.279Z,98.96
2019-04-04T01:55:38.524Z,98.65
2019-04-04T01:56:41.704Z,98.65
2019-04-04T01:57:44.952Z,98.84
2019-04-04T01:58:47.774Z,98.90
2019-04-04T01:59:50.961Z,98.83
2019-04-04T02:00:53.757Z,98.81
2019-04-04T02:01:56.586Z,98.81
2019-04-04T02:02:59.400Z,99.21
2019-04-04T02:04:02.199Z,98.61
2019-04-04T02:05:05.112Z,99.20
2019-04-04T02:06:08.237Z,99.11
2019-04-04T02:07:11.091Z,99.45
2019-04-04T02:08:13.916Z,99.22
2019-04-04T02:09:16.821Z,99.17
2019-04-04T02:10:19.640Z,99.40
2019-04-04T02:11:22.467Z,99.66
2019-04-04T02:12:28.822Z,99.66
2019-04-04T02:13:31.706Z,99.46
2019-04-04T02:14:34.501Z,99.47
2019-04-04T02:15:38.023Z,99.56
2019-04-04T02:16:40.828Z,99.63
2019-04-04T02:17:43.629Z,99.61
2019-04-04T02:18:46.837Z,100.00
2019-04-04T02:19:49.698Z,100.00
2019-04-04T02:20:52.504Z,99.63
2019-04-04T02:21:55.392Z,100.00
2019-04-04T02:23:01.232Z,99.52
2019-04-04T02:24:05.354Z,99.43
2019-04-04T02:25:08.470Z,99.99
2019-04-04T02:26:11.439Z,99.44
2019-04-04T02:27:14.292Z,99.59
2019-04-04T02:28:17.106Z,99.48
2019-04-04T02:29:19.931Z,99.68
2019-04-04T02:30:22.762Z,99.68
2019-04-04T02:31:27.576Z,100.00
2019-04-04T02:32:30.421Z,100.00
2019-04-04T02:33:33.675Z,100.00
2019-04-04T02:34:37.991Z,99.42
2019-04-04T02:35:43.702Z,99.96
2019-04-04T02:36:48.755Z,99.96
2019-04-04T02:37:50.283Z,99.11
2019-04-04T02:38:53.517Z,99.54
2019-04-04T02:39:56.303Z,99.28
2019-04-04T02:40:59.133Z,99.71
2019-04-04T02:42:01.987Z,99.71
2019-04-04T02:43:04.804Z,99.74
2019-04-04T02:44:09.551Z,99.72
2019-04-04T02:45:13.948Z,99.72
2019-04-04T02:46:16.809Z,99.45
2019-04-04T02:47:20.129Z,99.78
2019-04-04T02:48:24.417Z,99.83
2019-04-04T02:49:29.190Z,99.73
2019-04-04T02:50:35.524Z,99.73
2019-04-04T02:51:41.053Z,99.70
2019-04-04T02:52:45.676Z,99.54
2019-04-04T02:53:51.845Z,100.00
2019-04-04T02:54:57.095Z,100.00
2019-04-04T02:56:02.302Z,100.00
2019-04-04T02:57:02.092Z,100.00
2019-04-04T02:58:07.361Z,99.84
2019-04-04T02:59:10.620Z,100.00
2019-04-04T03:00:13.720Z,100.00
2019-04-04T03:01:16.559Z,100.00
2019-04-04T03:02:19.725Z,100.00
2019-04-04T03:03:22.617Z,100.00
2019-04-04T03:04:25.467Z,99.95
2019-04-04T03:05:28.729Z,100.00
2019-04-04T03:06:32.001Z,100.00
2019-04-04T03:07:35.180Z,100.00
2019-04-04T03:08:38.362Z,100.00
2019-04-04T03:09:43.320Z,99.88
2019-04-04T03:10:48.230Z,100.00
2019-04-04T03:11:53.484Z,100.00
2019-04-04T03:12:58.015Z,99.99
2019-04-04T03:14:03.468Z,99.99
2019-04-04T03:15:06.184Z,100.00
2019-04-04T03:16:08.411Z,100.00
2019-04-04T03:17:11.232Z,99.59
2019-04-04T03:18:14.395Z,99.85
2019-04-04T03:19:17.226Z,99.72
2019-04-04T03:20:20.499Z,100.00
2019-04-04T03:21:24.918Z,99.91
2019-04-04T03:22:28.399Z,100.00
2019-04-04T03:23:33.842Z,99.97
2019-04-04T03:24:38.899Z,99.81
2019-04-04T03:25:40.223Z,99.81
2019-04-04T03:26:43.943Z,100.00
2019-04-04T03:27:47.073Z,99.94
2019-04-04T03:28:49.937Z,100.00
2019-04-04T03:29:52.846Z,100.00
2019-04-04T03:31:02.451Z,100.00
2019-04-04T03:32:00.109Z,100.00
2019-04-04T03:33:03.255Z,100.00
2019-04-04T03:34:11.053Z,100.00
2019-04-04T03:35:12.527Z,99.78
2019-04-04T03:36:16.605Z,99.78
2019-04-04T03:37:19.432Z,100.00
2019-04-04T03:38:22.248Z,99.75
2019-04-04T03:39:28.609Z,100.00
2019-04-04T03:40:31.826Z,100.00
2019-04-04T03:41:35.791Z,100.00
2019-04-04T03:42:43.842Z,99.96
2019-04-04T03:43:47.887Z,99.94
2019-04-04T03:44:52.922Z,100.00
2019-04-04T03:45:52.998Z,100.00
2019-04-04T03:46:56.114Z,100.00
2019-04-04T03:47:58.934Z,100.00
2019-04-04T03:49:01.807Z,100.00
2019-04-04T03:50:04.720Z,100.00
2019-04-04T03:51:08.146Z,99.81
2019-04-04T03:52:11.610Z,99.81
2019-04-04T03:53:17.460Z,100.00
2019-04-04T03:54:23.414Z,99.89
2019-04-04T03:55:27.917Z,99.88
2019-04-04T03:56:38.951Z,99.67
2019-04-04T03:57:37.832Z,100.00
2019-04-04T03:58:40.835Z,99.84
2019-04-04T03:59:44.564Z,99.84
2019-04-04T04:00:47.528Z,99.84
2019-04-04T04:01:50.914Z,99.40
2019-04-04T04:02:53.738Z,99.40
2019-04-04T04:03:56.640Z,99.62
2019-04-04T04:05:02.106Z,99.64
2019-04-04T04:06:08.450Z,99.85
2019-04-04T04:07:13.733Z,99.85
2019-04-04T04:08:14.430Z,99.66
2019-04-04T04:09:18.399Z,99.39
2019-04-04T04:10:21.684Z,99.38
2019-04-04T04:11:24.966Z,99.38
2019-04-04T04:12:31.213Z,99.40
2019-04-04T04:13:34.607Z,99.40
2019-04-04T04:14:37.548Z,99.35
2019-04-04T04:15:40.367Z,99.33
2019-04-04T04:16:43.191Z,99.74
2019-04-04T04:17:46.518Z,99.31
2019-04-04T04:18:53.963Z,99.23
2019-04-04T04:19:54.335Z,99.04
2019-04-04T04:20:57.192Z,99.70
2019-04-04T04:22:00.143Z,99.76
2019-04-04T04:23:06.317Z,99.78
2019-04-04T04:24:09.118Z,99.17
2019-04-04T04:25:12.322Z,99.29
2019-04-04T04:26:15.160Z,99.63
2019-04-04T04:27:18.093Z,99.62
2019-04-04T04:28:22.641Z,99.74
2019-04-04T04:29:29.936Z,99.32
2019-04-04T04:30:32.970Z,99.64
2019-04-04T04:31:36.061Z,99.64
2019-04-04T04:32:38.952Z,99.64
2019-04-04T04:33:42.190Z,100.00
2019-04-04T04:34:47.656Z,100.00
2019-04-04T04:35:50.523Z,100.00
2019-04-04T04:36:53.332Z,100.00
2019-04-04T04:37:56.513Z,100.00
2019-04-04T04:39:03.946Z,100.00
2019-04-04T04:40:06.767Z,100.00
2019-04-04T04:41:13.242Z,100.00
2019-04-04T04:42:16.068Z,100.00
2019-04-04T04:43:18.968Z,100.00
2019-04-04T04:44:23.953Z,100.00
2019-04-04T04:45:26.871Z,100.00
2019-04-04T04:46:29.696Z,100.00
2019-04-04T04:47:32.590Z,100.00
2019-04-04T04:48:35.503Z,100.00
2019-04-04T04:49:38.331Z,100.00
2019-04-04T04:50:41.551Z,100.00
2019-04-04T04:51:44.660Z,100.00
2019-04-04T04:52:48.023Z,100.00
2019-04-04T04:53:51.301Z,100.00
2019-04-04T04:54:54.652Z,100.00
2019-04-04T04:56:00.498Z,100.00
2019-04-04T04:57:05.012Z,100.00
2019-04-04T04:58:10.260Z,100.00
2019-04-04T04:59:15.293Z,100.00
2019-04-04T05:00:18.120Z,100.00
2019-04-04T05:01:20.940Z,100.00
2019-04-04T05:02:26.050Z,100.00
2019-04-04T05:03:33.695Z,100.00
2019-04-04T05:04:37.851Z,100.00
2019-04-04T05:05:40.645Z,100.00
2019-04-04T05:06:43.563Z,100.00
2019-04-04T05:07:46.496Z,99.75
2019-04-04T05:08:49.349Z,99.75
2019-04-04T05:09:52.918Z,100.00
2019-04-04T05:10:55.741Z,100.00
2019-04-04T05:11:58.689Z,100.00
2019-04-04T05:13:01.496Z,99.80
2019-04-04T05:14:04.368Z,99.69
2019-04-04T05:15:07.727Z,99.61
2019-04-04T05:16:13.843Z,99.93
2019-04-04T05:17:17.560Z,99.79
2019-04-04T05:18:20.379Z,99.79
2019-04-04T05:19:23.755Z,100.00
2019-04-04T05:20:29.854Z,99.87
2019-04-04T05:21:33.912Z,99.87
2019-04-04T05:22:40.011Z,99.55
2019-04-04T05:23:47.101Z,99.16
2019-04-04T05:25:06.992Z,98.89
2019-04-04T05:25:54.786Z,98.89
2019-04-04T05:26:57.669Z,99.24
2019-04-04T05:28:00.477Z,99.08
2019-04-04T05:29:13.227Z,99.13
2019-04-04T05:43:49.902Z,99.34
2019-04-04T05:44:52.883Z,99.44
2019-04-04T05:45:55.874Z,99.30
2019-04-04T05:46:59.326Z,99.30
2019-04-04T05:48:02.218Z,98.95
2019-04-04T05:49:08.255Z,99.13
2019-04-04T05:50:16.406Z,98.93
2019-04-04T05:51:21.375Z,98.31
2019-04-04T05:52:24.243Z,98.31
2019-04-04T05:53:27.636Z,98.61
2019-04-04T05:54:30.690Z,99.09
2019-04-04T05:55:34.209Z,98.57
2019-04-04T05:56:37.520Z,98.57
2019-04-04T05:57:40.397Z,99.12
2019-04-04T05:58:43.205Z,98.79
2019-04-04T05:59:48.862Z,99.09
2019-04-04T06:00:57.587Z,98.78
2019-04-04T06:01:59.970Z,98.65
2019-04-04T06:03:02.939Z,98.94
2019-04-04T06:04:06.153Z,98.50
2019-04-04T06:05:09.014Z,98.52
2019-04-04T06:06:11.908Z,98.90
2019-04-04T06:07:16.489Z,99.17
2019-04-04T06:08:19.720Z,99.17
2019-04-04T06:09:22.588Z,98.99
2019-04-04T06:10:25.616Z,99.05
2019-04-04T06:11:28.737Z,99.22
2019-04-04T06:12:31.576Z,99.22
2019-04-04T06:13:35.137Z,98.88
2019-04-04T06:14:38.591Z,99.29
2019-04-04T06:15:43.604Z,98.97
2019-04-04T06:16:46.847Z,98.50
2019-04-04T06:17:50.464Z,98.59
2019-04-04T06:18:53.883Z,98.93
2019-04-04T06:19:56.742Z,98.93
2019-04-04T06:20:59.995Z,98.63
2019-04-04T06:22:02.786Z,98.35
2019-04-04T06:23:05.627Z,98.35
2019-04-04T06:24:08.969Z,98.93
2019-04-04T06:25:15.282Z,99.07
2019-04-04T06:26:18.356Z,98.66
2019-04-04T06:27:23.116Z,98.66
2019-04-04T06:28:26.001Z,99.03
2019-04-04T06:29:28.915Z,99.17
2019-04-04T06:30:42.531Z,99.28
2019-04-04T06:31:36.476Z,99.10
2019-04-04T06:32:39.627Z,99.68
2019-04-04T06:33:43.564Z,99.22
2019-04-04T06:34:48.582Z,98.78
2019-04-04T06:35:51.631Z,99.21
2019-04-04T06:36:54.939Z,98.99
2019-04-04T06:37:57.787Z,98.90
2019-04-04T06:39:00.677Z,98.90
2019-04-04T06:40:06.078Z,98.77
2019-04-04T06:41:08.984Z,98.70
2019-04-04T06:42:11.851Z,98.44
2019-04-04T06:43:15.072Z,98.57
2019-04-04T06:44:20.761Z,98.96
2019-04-04T06:45:23.661Z,98.96
2019-04-04T06:46:29.377Z,98.46
2019-04-04T06:47:32.543Z,98.86
2019-04-04T06:48:37.075Z,98.22
2019-04-04T06:49:45.729Z,98.93
2019-04-04T06:50:47.778Z,98.23
2019-04-04T06:51:50.675Z,98.29
2019-04-04T06:52:56.383Z,98.11
2019-04-04T06:54:01.070Z,98.58
2019-04-04T06:55:04.022Z,98.86
2019-04-04T06:56:06.920Z,98.33
2019-04-04T06:57:09.739Z,98.35
2019-04-04T06:58:12.710Z,98.87
2019-04-04T06:59:15.627Z,98.87
2019-04-04T07:00:18.514Z,98.43
2019-04-04T07:01:25.190Z,98.07
2019-04-04T07:02:26.760Z,98.78
2019-04-04T07:03:29.788Z,98.22
2019-04-04T07:04:35.834Z,98.66
2019-04-04T07:05:38.823Z,98.36
2019-04-04T07:06:42.415Z,98.82
2019-04-04T07:07:51.555Z,98.71
2019-04-04T07:08:53.551Z,98.71
2019-04-04T07:09:56.512Z,98.40
2019-04-04T07:11:02.732Z,98.82
2019-04-04T07:12:06.536Z,98.76
2019-04-04T07:13:21.190Z,98.31
2019-04-04T07:14:13.768Z,98.39
2019-04-04T07:15:16.743Z,98.39
2019-04-04T07:16:19.713Z,98.68
2019-04-04T07:17:22.665Z,98.79
2019-04-04T07:18:31.195Z,98.69
2019-04-04T07:19:35.042Z,98.69
2019-04-04T07:20:40.101Z,99.58
2019-04-04T07:21:44.415Z,99.24
2019-04-04T07:22:47.318Z,99.25
2019-04-04T07:23:50.215Z,99.22
2019-04-04T07:24:54.193Z,99.34
2019-04-04T07:25:57.854Z,99.69
2019-04-04T07:27:00.703Z,99.69
2019-04-04T07:28:03.635Z,99.51
2019-04-04T07:29:06.511Z,99.60
2019-04-04T07:30:09.519Z,99.60
2019-04-04T07:31:16.165Z,99.52
2019-04-04T07:32:19.482Z,99.00
2019-04-04T07:33:24.318Z,99.05
2019-04-04T07:34:27.205Z,99.05
2019-04-04T07:35:30.080Z,98.01
2019-04-04T07:36:32.943Z,98.32
2019-04-04T07:37:36.164Z,97.66
2019-04-04T07:38:39.289Z,97.89
2019-04-04T07:39:42.132Z,97.40
2019-04-04T07:40:45.061Z,97.55
2019-04-04T07:41:47.968Z,97.27
2019-04-04T07:42:50.845Z,97.05
2019-04-04T07:43:54.963Z,96.91
2019-04-04T07:44:58.183Z,97.43
2019-04-04T07:46:15.701Z,96.96
2019-04-04T07:47:10.943Z,97.08
2019-04-04T07:48:18.509Z,97.08
2019-04-04T07:49:23.210Z,97.06
2019-04-04T07:50:26.266Z,97.09
2019-04-04T07:51:30.889Z,97.09
2019-04-04T07:52:34.387Z,97.03
2019-04-04T07:53:37.324Z,97.04
2019-04-04T07:54:40.701Z,97.19
2019-04-04T07:55:45.937Z,96.63
2019-04-04T07:56:48.977Z,96.43
2019-04-04T07:57:52.377Z,96.21
2019-04-04T07:58:55.335Z,96.27
2019-04-04T07:59:58.296Z,96.15
2019-04-04T08:01:04.311Z,96.22
2019-04-04T08:02:07.234Z,95.97
2019-04-04T08:03:11.438Z,96.10
2019-04-04T08:04:14.592Z,96.10
2019-04-04T08:05:17.616Z,95.98
2019-04-04T08:06:23.298Z,95.87
2019-04-04T08:07:26.146Z,96.02
2019-04-04T08:08:29.054Z,95.68
2019-04-04T08:09:40.736Z,95.91
2019-04-04T08:10:51.166Z,95.90
2019-04-04T08:11:58.356Z,95.69
2019-04-04T08:13:03.442Z,95.69
2019-04-04T08:14:06.293Z,95.65
2019-04-04T08:15:09.963Z,95.19
2019-04-04T08:16:16.352Z,95.29
2019-04-04T08:17:19.711Z,95.48
2019-04-04T08:18:22.567Z,95.48
2019-04-04T08:19:25.448Z,95.57
2019-04-04T08:20:30.845Z,95.81
2019-04-04T08:21:37.179Z,95.81
2019-04-04T08:22:43.084Z,95.79
2019-04-04T08:23:47.855Z,95.79
2019-04-04T08:24:50.509Z,95.56
2019-04-04T08:25:56.236Z,95.85
2019-04-04T08:26:59.357Z,95.85
2019-04-04T08:28:02.200Z,96.26
2019-04-04T08:29:09.346Z,96.04
2019-04-04T08:30:19.457Z,95.99
2019-04-04T08:31:22.655Z,96.28
2019-04-04T08:32:27.791Z,96.04
2019-04-04T08:33:35.118Z,96.04
2019-04-04T08:34:36.526Z,96.10
2019-04-04T08:35:40.041Z,96.75
2019-04-04T08:36:42.920Z,96.68
2019-04-04T08:37:45.829Z,96.47
2019-04-04T08:38:49.364Z,96.61
2019-04-04T08:39:56.272Z,96.35
2019-04-04T08:41:10.989Z,96.38
2019-04-04T10:42:51.167Z,94.27
2019-04-04T10:43:56.989Z,94.61
2019-04-04T10:45:03.739Z,94.61
2019-04-04T10:46:10.266Z,94.29
2019-04-04T10:47:15.142Z,94.28
2019-04-04T10:48:21.097Z,94.17
2019-04-04T10:49:28.379Z,94.27
2019-04-04T10:50:31.273Z,94.07
2019-04-04T10:51:35.495Z,94.07
2019-04-04T10:52:38.678Z,94.41
2019-04-04T10:55:07.987Z,94.60
2019-04-04T10:56:12.185Z,94.28
2019-04-04T10:57:16.497Z,94.46
2019-04-04T10:58:19.331Z,94.40
2019-04-04T10:59:25.364Z,94.48
2019-04-04T11:00:28.618Z,94.33
2019-04-04T11:01:31.596Z,94.50
2019-04-04T11:02:34.595Z,94.50
2019-04-04T11:03:45.743Z,94.82
2019-04-04T11:04:52.453Z,94.82
2019-04-04T11:06:00.397Z,94.54
2019-04-04T11:07:04.157Z,94.25
2019-04-04T11:08:07.534Z,94.55
2019-04-04T11:09:10.958Z,94.25
2019-04-04T11:10:16.084Z,94.25
2019-04-04T11:11:30.065Z,94.69
2019-04-04T11:12:45.343Z,94.30
2019-04-04T11:13:49.550Z,93.81
2019-04-04T11:14:52.816Z,94.08
2019-04-04T11:16:12.497Z,93.60
2019-04-04T11:17:28.227Z,93.49
2019-04-04T11:18:36.110Z,93.44
2019-04-04T11:19:51.239Z,93.44
2019-04-04T11:20:54.451Z,93.69
2019-04-04T11:21:57.395Z,93.69
2019-04-04T11:23:00.713Z,93.35
2019-04-04T11:24:03.755Z,93.35
2019-04-04T11:25:18.786Z,93.46
2019-04-04T11:26:23.692Z,93.49
2019-04-04T11:27:32.988Z,93.49
2019-04-04T11:28:35.884Z,92.95
2019-04-04T11:29:38.952Z,93.42
2019-04-04T11:30:41.872Z,93.05
2019-04-04T11:31:45.441Z,92.86
2019-04-04T11:32:49.159Z,92.86
2019-04-04T11:35:17.143Z,93.00
2019-04-04T11:36:22.746Z,92.42
2019-04-04T11:40:09.029Z,92.50
2019-04-04T11:41:13.900Z,92.51
2019-04-04T11:42:19.671Z,92.24
2019-04-04T11:43:25.642Z,92.29
2019-04-04T11:44:40.237Z,92.19
2019-04-04T11:45:44.443Z,92.53
2019-04-04T11:46:50.762Z,92.48
2019-04-04T11:47:54.070Z,92.20
2019-04-04T11:48:59.195Z,91.81
2019-04-04T11:50:01.706Z,91.95
2019-04-04T11:51:07.425Z,91.95
2019-04-04T11:52:19.368Z,92.33
2019-04-04T11:53:22.200Z,92.33
2019-04-04T11:54:27.800Z,91.91
2019-04-04T11:55:33.160Z,92.07
2019-04-04T11:56:38.033Z,91.39
2019-04-04T11:57:40.777Z,91.29
2019-04-04T11:58:47.552Z,91.53
2019-04-04T11:59:50.405Z,91.83
2019-04-04T12:00:58.393Z,91.67
2019-04-04T12:02:01.601Z,92.04
2019-04-04T12:03:04.517Z,92.25
2019-04-04T12:04:09.011Z,92.03
2019-04-04T12:05:14.774Z,92.24
2019-04-04T12:06:17.641Z,92.12
2019-04-04T12:07:23.424Z,92.12
2019-04-04T12:08:28.992Z,92.18
2019-04-04T12:09:31.866Z,92.18
2019-04-04T12:10:34.748Z,91.89
2019-04-04T12:11:38.944Z,92.27
2019-04-04T12:12:41.811Z,92.41
2019-04-04T12:13:44.710Z,92.13
2019-04-04T12:14:48.244Z,92.13
2019-04-04T12:15:53.591Z,92.30
2019-04-04T12:16:59.300Z,92.03
2019-04-04T12:18:04.209Z,92.36
2019-04-04T12:19:07.782Z,92.36
2019-04-04T12:20:16.785Z,92.75
2019-04-04T12:21:22.346Z,92.72
2019-04-04T12:22:25.359Z,92.63
2019-04-04T12:23:28.270Z,92.53
2019-04-04T12:24:32.630Z,92.53
2019-04-04T12:25:39.434Z,92.53
2019-04-04T12:26:42.351Z,92.60
2019-04-04T12:27:47.676Z,92.53
2019-04-04T12:28:50.273Z,92.57
2019-04-04T12:30:04.042Z,92.45
2019-04-04T12:31:07.153Z,92.45
2019-04-04T12:32:10.611Z,92.40
2019-04-04T12:33:15.096Z,92.40
2019-04-04T12:34:19.121Z,91.50
2019-04-04T12:35:22.460Z,91.56
2019-04-04T12:36:26.320Z,91.47
2019-04-04T12:37:29.394Z,91.43
2019-04-04T12:38:32.321Z,91.94
2019-04-04T12:39:36.048Z,91.65
2019-04-04T12:40:39.631Z,91.83
2019-04-04T12:41:44.114Z,91.83
2019-04-04T12:42:49.172Z,91.98
2019-04-04T12:43:51.699Z,91.67
2019-04-04T12:44:54.611Z,91.67
2019-04-04T12:46:03.832Z,91.61
2019-04-04T12:47:09.120Z,91.64
2019-04-04T12:48:12.377Z,91.37
2019-04-04T12:49:16.889Z,91.37
2019-04-04T12:50:19.773Z,91.68
2019-04-04T12:51:22.703Z,91.66
2019-04-04T12:52:25.961Z,91.40
2019-04-04T12:53:28.946Z,91.40
2019-04-04T12:54:31.837Z,91.29
2019-04-04T12:55:34.676Z,91.29
2019-04-04T12:56:38.100Z,91.35
2019-04-04T12:57:40.936Z,91.31
2019-04-04T12:58:44.113Z,91.31
2019-04-04T12:59:47.250Z,91.43
2019-04-04T13:00:53.041Z,91.40
2019-04-04T13:01:56.032Z,91.14
2019-04-04T13:03:02.832Z,90.98
2019-04-04T13:04:07.966Z,90.93
2019-04-04T13:05:11.258Z,90.92
2019-04-04T13:06:16.836Z,91.12
2019-04-04T13:07:19.617Z,91.18
2019-04-04T13:08:22.463Z,91.38
2019-04-04T13:09:25.356Z,91.21
2019-04-04T13:10:33.390Z,91.05
2019-04-04T13:11:39.925Z,91.05
2019-04-04T13:12:47.318Z,91.10
2019-04-04T13:13:53.185Z,91.08
2019-04-04T13:14:57.459Z,92.73
2019-04-04T13:16:00.217Z,93.04
2019-04-04T13:17:04.204Z,92.73
2019-04-04T13:18:32.829Z,92.92
2019-04-04T13:19:39.094Z,92.92
2019-04-04T13:20:41.538Z,92.66
2019-04-04T13:21:48.787Z,92.93
2019-04-04T13:22:51.473Z,92.78
2019-04-04T13:23:57.457Z,92.78
2019-04-04T13:25:03.216Z,92.52
2019-04-04T13:26:08.884Z,92.58
2019-04-04T13:27:11.715Z,92.84
2019-04-04T13:28:14.567Z,92.36
2019-04-04T13:29:17.473Z,92.61
2019-04-04T13:30:25.097Z,92.80
2019-04-04T13:31:31.045Z,92.61
2019-04-04T13:32:36.885Z,92.71
2019-04-04T13:33:42.434Z,92.62
2019-04-04T13:34:59.249Z,93.06
2019-04-04T13:36:10.266Z,93.07
2019-04-04T13:37:17.625Z,93.36
2019-04-04T13:38:24.064Z,93.79
2019-04-04T13:39:26.907Z,93.56
2019-04-04T13:40:30.312Z,93.65
2019-04-04T13:41:33.782Z,93.31
2019-04-04T13:42:38.226Z,93.55
2019-04-04T13:43:43.331Z,93.59
2019-04-04T13:44:46.771Z,93.72
2019-04-04T13:45:49.703Z,93.43
2019-04-04T13:46:54.117Z,93.33
2019-04-04T13:47:56.980Z,93.41
2019-04-04T13:48:59.812Z,93.41
2019-04-04T13:50:02.821Z,93.47
2019-04-04T13:51:06.200Z,93.83
2019-04-04T13:52:11.575Z,93.86
2019-04-04T13:53:15.283Z,93.92
2019-04-04T13:54:18.014Z,93.81
2019-04-04T13:55:25.169Z,93.78
2019-04-04T13:56:29.329Z,93.69
2019-04-04T13:57:35.835Z,94.25
2019-04-04T13:58:39.038Z,94.20
2019-04-04T13:59:44.456Z,94.01
2019-04-04T14:00:50.053Z,94.12
2019-04-04T14:01:54.010Z,94.12
2019-04-04T14:02:57.316Z,93.97
2019-04-04T14:04:00.458Z,94.04
2019-04-04T14:05:10.042Z,93.81
2019-04-04T14:06:12.115Z,94.27
2019-04-04T14:07:15.015Z,93.91
2019-04-04T14:08:19.303Z,94.32
2019-04-04T14:09:24.266Z,94.32
2019-04-04T14:10:28.511Z,94.03
2019-04-04T14:11:32.537Z,94.03
2019-04-04T14:12:40.018Z,94.49
2019-04-04T14:13:43.387Z,94.53
2019-04-04T14:14:58.116Z,94.57
2019-04-04T14:15:54.202Z,94.47
2019-04-04T14:16:58.551Z,94.48
2019-04-04T14:18:08.408Z,94.48
2019-04-04T14:19:12.445Z,94.80
2019-04-04T14:20:15.302Z,94.74
2019-04-04T14:21:20.087Z,94.44
2019-04-04T14:23:34.421Z,93.93
2019-04-04T14:24:37.448Z,93.93
2019-04-04T14:25:40.554Z,94.14
2019-04-04T14:26:46.462Z,94.42
2019-04-04T14:27:52.975Z,94.42
2019-04-04T14:28:59.262Z,94.14
2019-04-04T14:30:04.475Z,93.67
2019-04-04T14:31:10.190Z,93.92
2019-04-04T14:32:13.241Z,93.75
2019-04-04T14:33:18.908Z,93.46
2019-04-04T14:34:21.576Z,93.54
2019-04-04T14:35:24.757Z,93.53
2019-04-04T14:36:27.622Z,93.53
2019-04-04T14:37:32.758Z,93.68
2019-04-04T14:38:48.555Z,93.68
2019-04-04T14:39:54.723Z,93.62
2019-04-04T14:41:11.207Z,93.61
2019-04-04T14:42:12.620Z,93.71
2019-04-04T14:43:18.696Z,93.71
2019-04-04T14:44:28.087Z,93.75
2019-04-04T14:45:32.596Z,93.93
2019-04-04T14:46:42.518Z,94.04
2019-04-04T14:48:00.141Z,93.59
2019-04-04T14:49:04.650Z,93.73
2019-04-04T14:50:07.551Z,93.93
2019-04-04T14:51:10.597Z,93.92
2019-04-04T14:52:13.416Z,93.50
2019-04-04T14:53:19.796Z,93.75
2019-04-04T14:54:23.166Z,93.75
2019-04-04T14:55:26.028Z,93.77
2019-04-04T14:56:29.184Z,93.81
2019-04-04T14:57:32.599Z,93.96
2019-04-04T14:58:38.706Z,94.02
2019-04-04T14:59:42.601Z,93.82
2019-04-04T15:00:49.239Z,94.02
2019-04-04T15:02:01.925Z,93.95
2019-04-04T15:03:04.645Z,93.96
2019-04-04T15:04:09.902Z,93.96
2019-04-04T15:05:15.669Z,94.03
2019-04-04T15:06:21.938Z,94.18
2019-04-04T15:07:33.971Z,94.48
2019-04-04T15:08:38.766Z,94.13
2019-04-04T15:09:41.681Z,94.56
2019-04-04T15:10:44.613Z,94.24
2019-04-04T15:11:47.685Z,94.05
2019-04-04T15:12:53.220Z,93.96
2019-04-04T15:13:59.075Z,94.02
2019-04-04T15:15:03.905Z,94.30
2019-04-04T15:16:09.468Z,94.51
2019-04-04T15:17:11.197Z,94.30
2019-04-04T15:18:17.300Z,94.30
2019-04-04T15:19:21.230Z,94.57
2019-04-04T15:20:25.462Z,94.53
2019-04-04T15:21:28.308Z,94.97
2019-04-04T15:22:33.858Z,94.37
2019-04-04T15:23:37.318Z,94.31
2019-04-04T15:24:42.125Z,94.66
2019-04-04T15:25:44.643Z,94.37
2019-04-04T15:26:50.084Z,94.37
2019-04-04T15:27:53.131Z,94.68
2019-04-04T15:28:57.933Z,94.91
2019-04-04T15:30:00.764Z,94.91
2019-04-04T15:31:04.246Z,94.35
2019-04-04T15:32:09.571Z,94.48
2019-04-04T15:33:12.642Z,94.28
2019-04-04T15:34:15.639Z,94.34
2019-04-04T15:35:21.457Z,94.47
2019-04-04T15:36:26.778Z,94.15
2019-04-04T15:37:29.622Z,94.44
2019-04-04T15:38:32.654Z,94.42
2019-04-04T15:39:35.776Z,94.42
2019-04-04T15:40:38.736Z,93.81
2019-04-04T15:41:42.190Z,93.96
2019-04-04T15:42:44.873Z,93.94
2019-04-04T15:43:47.647Z,93.83
2019-04-04T15:44:56.044Z,93.79
2019-04-04T15:45:56.818Z,93.58
2019-04-04T15:46:59.716Z,93.98
2019-04-04T15:48:02.928Z,93.98
2019-04-04T15:49:07.227Z,93.35
2019-04-04T15:50:10.173Z,93.28
2019-04-04T15:51:22.145Z,93.28
2019-04-04T15:52:24.977Z,93.48
2019-04-04T15:53:28.029Z,93.56
2019-04-04T15:54:33.342Z,93.49
2019-04-04T15:55:36.253Z,93.49
2019-04-04T15:56:39.419Z,93.59
2019-04-04T15:57:48.558Z,93.83
2019-04-04T15:58:54.637Z,93.83
2019-04-04T15:59:57.414Z,94.40
2019-04-04T16:01:00.295Z,94.28
2019-04-04T16:02:03.338Z,94.34
2019-04-04T16:03:06.255Z,94.15
2019-04-04T16:04:12.363Z,94.15
2019-04-04T16:05:18.640Z,94.12
2019-04-04T16:06:32.011Z,94.01
2019-04-04T16:07:33.303Z,93.69
2019-04-04T16:08:36.205Z,93.79
2019-04-04T16:09:41.895Z,94.14
2019-04-04T16:10:50.296Z,94.18
2019-04-04T16:11:53.261Z,94.76
2019-04-04T16:12:57.823Z,94.73
2019-04-04T16:14:00.755Z,94.73
2019-04-04T16:15:07.738Z,94.32
2019-04-04T16:16:10.800Z,94.60
2019-04-04T16:17:14.648Z,94.27
2019-04-04T16:18:22.180Z,94.27
2019-04-04T16:19:25.444Z,94.65
2019-04-04T16:20:35.648Z,94.09
2019-04-04T16:21:40.917Z,94.35
2019-04-04T16:22:44.051Z,94.54
2019-04-04T16:23:47.397Z,94.54
2019-04-04T16:24:52.700Z,94.46
2019-04-04T16:25:55.613Z,94.40
2019-04-04T16:26:58.490Z,94.18
2019-04-04T16:28:01.383Z,94.23
2019-04-04T16:29:04.120Z,94.23
2019-04-04T16:42:56.162Z,94.23
2019-04-04T16:44:05.302Z,94.23
2019-04-04T16:45:08.432Z,94.01